Time;durP1;ratioP1;P1;durP2;ratioP2;P2;SDS_P1;SDS_P2;PMS_P1;PMS_P2;Temp;Humidity;BMP_temperature;BMP_pressure;BME280_temperature;BME280_humidity;BME280_pressure;Samples;Min_cycle;Max_cycle;Signal;HPM_P1;HPM_P2
2021/07/18 00:00:06;;;;;;;;;;;;;;;;;;4963872;28;19933;-90
2021/07/18 00:02:35;;;;;;;;;;;;;;;;;;4980501;28;19930;-92
2021/07/18 00:05:03;;;;;;;;;;;;;;;;;;4973713;28;20409;-90
2021/07/18 00:07:32;;;;;;;;;;;;;;;;;;4987494;28;19933;-92
2021/07/18 00:10:00;;;;;;;;;;;;;;;;;;4960156;28;19933;-91
2021/07/18 00:12:28;;;;;;;;;;;;;;;;;;4966558;28;19946;-92
2021/07/18 00:14:58;;;;;;;;;;;;;;;;;;4975444;28;19926;-90
2021/07/18 00:17:26;;;;;;;;;;;;;;;;;;4993846;28;19934;-91
2021/07/18 00:19:55;;;;;;;;;;;;;;;;;;4978635;28;19925;-90
2021/07/18 00:22:23;;;;;;;;;;;;;;;;;;4964602;28;20317;-91
2021/07/18 00:24:51;;;;;;;;;;;;;;;;;;4960141;28;19926;-91
2021/07/18 00:27:20;;;;;;;;;;;;;;;;;;4968864;28;19930;-90
2021/07/18 00:29:48;;;;;;;;;;;;;;;;;;4966095;28;19929;-92
2021/07/18 00:32:18;;;;;;;;;;;;;;;;;;4971252;28;19953;-90
2021/07/18 00:34:47;;;;;;;;;;;;;;;;;;4971800;28;20378;-90
2021/07/18 00:37:15;;;;;;;;;;;;;;;;;;4972808;28;20006;-92
2021/07/18 00:39:43;;;;;;;;;;;;;;;;;;4965360;28;20010;-91
2021/07/18 00:42:11;;;;;;;;;;;;;;;;;;4968948;28;20337;-90
2021/07/18 00:44:40;;;;;;;;;;;;;;;;;;4983417;28;19925;-90
2021/07/18 00:47:08;;;;;;;;;;;;;;;;;;4970778;28;19933;-93
2021/07/18 00:49:38;;;;;;;;;;;;;;;;;;4999703;28;20437;-92
2021/07/18 00:52:06;;;;;;;;;;;;;;;;;;4975860;28;19909;-93
2021/07/18 00:54:35;;;;;;;;;;;;;;;;;;5000994;28;20124;-94
2021/07/18 00:57:03;;;;;;;;;;;;;;;;;;4987607;28;19924;-94
2021/07/18 00:59:31;;;;;;;;;;;;;;;;;;5027671;28;19921;-95
2021/07/18 01:02:00;;;;;;;;;;;;;;;;;;5004562;28;19940;-94
2021/07/18 01:04:28;;;;;;;;;;;;;;;;;;5018918;28;19925;-93
2021/07/18 01:06:58;;;;;;;;;;;;;;;;;;4988417;28;19910;-93
2021/07/18 01:09:26;;;;;;;;;;;;;;;;;;4987490;28;19924;-94
2021/07/18 01:11:54;;;;;;;;;;;;;;;;;;4990792;28;19926;-91
2021/07/18 01:14:23;;;;;;;;;;;;;;;;;;4970322;28;19933;-91
2021/07/18 01:16:51;;;;;;;;;;;;;;;;;;4980197;28;20333;-92
2021/07/18 01:19:20;;;;;;;;;;;;;;;;;;4997084;28;19929;-91
2021/07/18 01:21:53;;;;;;;;;;;;;;;;;;4969997;28;20001;-91
2021/07/18 01:24:22;;;;;;;;;;;;;;;;;;4975532;28;20008;-90
2021/07/18 01:26:50;;;;;;;;;;;;;;;;;;4970161;28;19935;-92
2021/07/18 01:29:18;;;;;;;;;;;;;;;;;;4980358;28;19926;-91
2021/07/18 01:31:46;;;;;;;;;;;;;;;;;;4974413;28;19938;-92
2021/07/18 01:34:14;;;;;;;;;;;;;;;;;;4961276;28;20298;-91
2021/07/18 01:36:42;;;;;;;;;;;;;;;;;;4965219;28;19926;-91
2021/07/18 01:39:12;;;;;;;;;;;;;;;;;;4952304;28;19934;-93
2021/07/18 01:41:41;;;;;;;;;;;;;;;;;;4954816;28;19930;-91
2021/07/18 01:44:09;;;;;;;;;;;;;;;;;;4948923;28;19937;-92
2021/07/18 01:46:37;;;;;;;;;;;;;;;;;;4967479;28;19936;-91
2021/07/18 01:49:06;;;;;;;;;;;;;;;;;;4962689;28;19933;-92
2021/07/18 01:51:34;;;;;;;;;;;;;;;;;;4952276;28;19926;-91
2021/07/18 01:54:03;;;;;;;;;;;;;;;;;;4956206;28;19926;-91
2021/07/18 01:56:33;;;;;;;;;;;;;;;;;;4980195;28;19926;-92
2021/07/18 01:59:01;;;;;;;;;;;;;;;;;;4973356;28;20302;-93
2021/07/18 02:01:30;;;;;;;;;;;;;;;;;;4967521;28;20310;-91
2021/07/18 02:03:59;;;;;;;;;;;;;;;;;;4967392;28;19929;-92
2021/07/18 02:06:27;;;;;;;;;;;;;;;;;;4968671;28;20449;-91
2021/07/18 02:08:57;;;;;;;;;;;;;;;;;;4974261;28;19926;-91
2021/07/18 02:11:25;;;;;;;;;;;;;;;;;;4982723;28;20569;-91
2021/07/18 02:13:56;;;;;;;;;;;;;;;;;;4985514;28;19949;-90
2021/07/18 02:16:24;;;;;;;;;;;;;;;;;;4991658;28;20409;-90
2021/07/18 02:18:53;;;;;;;;;;;;;;;;;;4972262;28;19926;-91
2021/07/18 02:21:21;;;;;;;;;;;;;;;;;;4983207;28;20397;-90
2021/07/18 02:23:49;;;;;;;;;;;;;;;;;;4978675;28;19929;-89
2021/07/18 02:26:18;;;;;;;;;;;;;;;;;;4973587;28;19926;-93
2021/07/18 02:28:47;;;;;;;;;;;;;;;;;;4978537;28;19925;-92
2021/07/18 02:31:16;;;;;;;;;;;;;;;;;;4963117;28;19926;-91
2021/07/18 02:33:44;;;;;;;;;;;;;;;;;;4971506;28;19933;-93
2021/07/18 02:36:13;;;;;;;;;;;;;;;;;;4959676;28;20305;-90
2021/07/18 02:38:41;;;;;;;;;;;;;;;;;;4964812;28;19929;-92
2021/07/18 02:41:09;;;;;;;;;;;;;;;;;;4966165;28;20306;-93
2021/07/18 02:43:37;;;;;;;;;;;;;;;;;;4985876;28;20440;-91
2021/07/18 02:46:06;;;;;;;;;;;;;;;;;;4970028;28;20290;-93
2021/07/18 02:48:36;;;;;;;;;;;;;;;;;;4966282;28;20412;-91
2021/07/18 02:51:04;;;;;;;;;;;;;;;;;;4971660;28;19933;-91
2021/07/18 02:53:33;;;;;;;;;;;;;;;;;;4961982;28;19933;-93
2021/07/18 02:56:01;;;;;;;;;;;;;;;;;;4970394;28;19930;-93
2021/07/18 02:58:29;;;;;;;;;;;;;;;;;;4971195;28;19954;-93
2021/07/18 03:00:57;;;;;;;;;;;;;;;;;;4990931;28;19925;-91
2021/07/18 03:03:26;;;;;;;;;;;;;;;;;;4964407;28;19930;-95
2021/07/18 03:05:57;;;;;;;;;;;;;;;;;;4968989;28;20310;-93
2021/07/18 03:08:25;;;;;;;;;;;;;;;;;;4982875;28;19926;-92
2021/07/18 03:10:54;;;;;;;;;;;;;;;;;;4968500;28;20359;-94
2021/07/18 03:13:23;;;;;;;;;;;;;;;;;;4967300;28;19949;-94
2021/07/18 03:15:51;;;;;;;;;;;;;;;;;;4965523;28;19937;-94
2021/07/18 03:18:19;;;;;;;;;;;;;;;;;;4966700;28;19926;-93
2021/07/18 03:20:49;;;;;;;;;;;;;;;;;;4967530;28;19925;-95
2021/07/18 03:31:43;;;;;;;;;;;;;;;;;;4980931;28;19918;-94
2021/07/18 03:34:26;;;;;;;;;;;;;;;;;;4988200;28;19926;-93
2021/07/18 03:36:55;;;;;;;;;;;;;;;;;;5010547;23;19926;-87
2021/07/18 03:39:30;;;;;;;;;;;;;;;;;;4986763;28;19929;-88
2021/07/18 03:42:01;;;;;;;;;;;;;;;;;;5002270;28;19933;-87
2021/07/18 03:44:32;;;;;;;;;;;;;;;;;;5007504;28;19937;-87
2021/07/18 03:47:07;;;;;;;;;;;;;;;;;;5002939;28;19925;-87
2021/07/18 03:49:50;;;;;;;;;;;;;;;;;;5007932;28;19930;-88
2021/07/18 03:52:32;;;;;;;;;;;;;;;;;;5013742;28;19932;-87
2021/07/18 03:58:51;;;;;;;;;;;;;;;;;;4980991;28;20165;-88
2021/07/18 04:01:31;;;;;;;;;;;;;;;;;;4986079;28;19936;-85
2021/07/18 04:07:34;;;;;;;;;;;;;;;;;;4992454;28;19933;-87
2021/07/18 04:10:07;;;;;;;;;;;;;;;;;;4979681;28;19933;-87
2021/07/18 04:12:46;;;;;;;;;;;;;;;;;;4991420;28;21453;-87
2021/07/18 04:19:57;;;;;;;;;;;;;;;;;;4938636;28;19934;-86
2021/07/18 04:23:24;;;;;;;;;;;;;;;;;;4993783;28;20041;-87
2021/07/18 04:30:14;;;;;;;;;;;;;;;;;;5004303;28;20291;-85
2021/07/18 04:33:40;;;;;;;;;;;;;;;;;;4983077;28;19934;-86
2021/07/18 04:41:50;;;;;;;;;;;;;;;;;;4982492;28;19926;-86
2021/07/18 04:49:35;;;;;;;;;;;;;;;;;;4982728;28;19926;-86
2021/07/18 04:52:17;;;;;;;;;;;;;;;;;;4969563;28;20198;-86
2021/07/18 04:55:03;;;;;;;;;;;;;;;;;;5007040;28;20641;-84
2021/07/18 05:01:20;;;;;;;;;;;;;;;;;;5017993;28;19929;-85
2021/07/18 05:03:54;;;;;;;;;;;;;;;;;;5009107;28;19926;-85
2021/07/18 05:06:59;;;;;;;;;;;;;;;;;;4986608;28;19926;-86
2021/07/18 05:10:34;;;;;;;;;;;;;;;;;;4996427;28;19925;-86
2021/07/18 05:13:05;;;;;;;;;;;;;;;;;;4998060;28;19932;-85
2021/07/18 05:15:54;;;;;;;;;;;;;;;;;;5003617;28;19930;-86
2021/07/18 05:18:25;;;;;;;;;;;;;;;;;;4991682;28;19933;-86
2021/07/18 05:21:07;;;;;;;;;;;;;;;;;;4970756;28;19929;-86
2021/07/18 05:24:12;;;;;;;;;;;;;;;;;;4968475;28;19932;-86
2021/07/18 05:32:17;;;;;;;;;;;;;;;;;;4987877;28;19930;-85
2021/07/18 05:36:40;;;;;;;;;;;;;;;;;;;;;
2021/07/18 05:44:49;;;;;;;;;;;;;;;;;;5011689;28;19925;-85
2021/07/18 05:48:46;;;;;;;;;;;;;;;;;;5021171;28;19929;-86
2021/07/18 05:51:35;;;;;;;;;;;;;;;;;;5009790;28;19934;-86
2021/07/18 05:57:11;;;;;;;;;;;;;;;;;;5004511;28;19934;-86
2021/07/18 05:59:44;;;;;;;;;;;;;;;;;;5001806;28;20291;-86
2021/07/18 06:02:17;;;;;;;;;;;;;;;;;;5003414;28;19932;-85
2021/07/18 06:04:49;;;;;;;;;;;;;;;;;;5002371;28;19945;-85
2021/07/18 06:07:20;;;;;;;;;;;;;;;;;;5006157;28;19925;-86
2021/07/18 06:09:49;;;;;;;;;;;;;;;;;;5012306;28;19933;-87
2021/07/18 06:12:20;;;;;;;;;;;;;;;;;;5011895;28;19932;-87
2021/07/18 06:14:49;;;;;;;;;;;;;;;;;;5018054;28;19973;-87
2021/07/18 06:17:18;;;;;;;;;;;;;;;;;;4989056;28;19936;-86
2021/07/18 06:19:46;;;;;;;;;;;;;;;;;;4990355;28;19932;-86
2021/07/18 06:22:29;;;;;;;;;;;;;;;;;;4997877;28;20358;-86
2021/07/18 06:25:10;;;;;;;;;;;;;;;;;;5012027;28;19932;-86
2021/07/18 06:27:41;;;;;;;;;;;;;;;;;;5003306;28;19925;-86
2021/07/18 06:30:24;;;;;;;;;;;;;;;;;;5008876;28;19925;-87
2021/07/18 06:32:52;;;;;;;;;;;;;;;;;;5012474;28;20284;-86
2021/07/18 06:35:24;;;;;;;;;;;;;;;;;;5012816;28;19925;-87
2021/07/18 06:37:53;;;;;;;;;;;;;;;;;;5000209;28;19933;-87
2021/07/18 06:40:22;;;;;;;;;;;;;;;;;;5006254;28;19937;-86
2021/07/18 06:42:52;;;;;;;;;;;;;;;;;;5008750;28;19932;-85
2021/07/18 06:45:22;;;;;;;;;;;;;;;;;;5008858;28;19925;-87
2021/07/18 06:47:52;;;;;;;;;;;;;;;;;;5015862;28;19937;-85
2021/07/18 06:50:21;;;;;;;;;;;;;;;;;;5014528;28;19934;-86
2021/07/18 06:52:49;;;;;;;;;;;;;;;;;;5008461;28;20460;-87
2021/07/18 06:55:18;;;;;;;;;;;;;;;;;;5010499;28;19948;-86
2021/07/18 06:57:47;;;;;;;;;;;;;;;;;;5013268;28;20561;-86
2021/07/18 07:00:17;;;;;;;;;;;;;;;;;;4994431;28;19933;-86
2021/07/18 07:02:45;;;;;;;;;;;;;;;;;;4992460;28;19925;-86
2021/07/18 07:05:14;;;;;;;;;;;;;;;;;;5018005;28;19929;-87
2021/07/18 07:07:46;;;;;;;;;;;;;;;;;;4988408;28;19933;-87
2021/07/18 07:10:15;;;;;;;;;;;;;;;;;;4996250;28;19940;-86
2021/07/18 07:12:44;;;;;;;;;;;;;;;;;;5021635;28;19920;-84
2021/07/18 07:15:13;;;;;;;;;;;;;;;;;;5042919;28;19992;-85
2021/07/18 07:17:46;;;;;;;;;;;;;;;;;;5013804;28;20396;-85
2021/07/18 07:20:15;;;;;;;;;;;;;;;;;;5022297;28;19925;-85
2021/07/18 07:22:43;;;;;;;;;;;;;;;;;;5008616;28;20446;-86
2021/07/18 07:25:13;;;;;;;;;;;;;;;;;;4994339;28;19925;-86
2021/07/18 07:27:41;;;;;;;;;;;;;;;;;;5017169;28;20307;-85
2021/07/18 07:30:10;;;;;;;;;;;;;;;;;;4995827;28;19940;-85
2021/07/18 07:32:39;;;;;;;;;;;;;;;;;;4994906;28;20310;-86
2021/07/18 07:35:09;;;;;;;;;;;;;;;;;;4987503;28;19940;-85
2021/07/18 07:37:38;;;;;;;;;;;;;;;;;;5011277;28;19932;-85
2021/07/18 07:40:07;;;;;;;;;;;;;;;;;;5005540;28;19913;-84
2021/07/18 07:42:36;;;;;;;;;;;;;;;;;;5016712;28;19927;-83
2021/07/18 07:45:05;;;;;;;;;;;;;;;;;;5020230;28;19913;-84
2021/07/18 07:47:33;;;;;;;;;;;;;;;;;;5058409;28;19909;-84
2021/07/18 07:50:03;;;;;;;;;;;;;;;;;;5035537;28;19909;-84
2021/07/18 07:52:33;;;;;;;;;;;;;;;;;;5026386;28;19926;-84
2021/07/18 07:55:03;;;;;;;;;;;;;;;;;;5031128;28;19909;-83
2021/07/18 07:57:32;;;;;;;;;;;;;;;;;;5044098;28;19909;-83
2021/07/18 08:00:00;;;;;;;;;;;;;;;;;;5019589;28;19925;-85
2021/07/18 08:02:39;;;;;;;;;;;;;;;;;;5023417;28;19926;-84
2021/07/18 08:16:47;;;;;;;;;;;;;;;;;;5032779;28;19936;-84
2021/07/18 08:31:07;;;;;;;;;;;;;;;;;;4985486;28;19925;-83
2021/07/18 08:33:43;;;;;;;;;;;;;;;;;;5001553;28;19934;-83
2021/07/18 08:36:12;;;;;;;;;;;;;;;;;;5009793;28;21132;-84
2021/07/18 08:38:42;;;;;;;;;;;;;;;;;;4998513;28;19926;-82
2021/07/18 08:41:11;;;;;;;;;;;;;;;;;;4994235;28;19925;-82
2021/07/18 08:43:48;;;;;;;;;;;;;;;;;;4996227;28;19926;-82
2021/07/18 08:46:18;;;;;;;;;;;;;;;;;;4979039;28;20303;-82
2021/07/18 08:48:49;;;;;;;;;;;;;;;;;;4993462;28;19926;-84
2021/07/18 08:51:18;;;;;;;;;;;;;;;;;;4996516;28;19932;-82
2021/07/18 08:53:46;;;;;;;;;;;;;;;;;;4995314;28;19936;-81
2021/07/18 08:56:16;;;;;;;;;;;;;;;;;;4994687;28;20326;-81
2021/07/18 08:58:45;;;;;;;;;;;;;;;;;;4987292;28;20304;-82
2021/07/18 09:01:13;;;;;;;;;;;;;;;;;;4979991;28;19940;-82
2021/07/18 09:03:42;;;;;;;;;;;;;;;;;;4978262;28;19925;-82
2021/07/18 09:06:12;;;;;;;;;;;;;;;;;;4993906;28;19937;-82
2021/07/18 09:08:41;;;;;;;;;;;;;;;;;;5011793;28;20276;-84
2021/07/18 09:11:16;;;;;;;;;;;;;;;;;;4989097;28;19929;-83
2021/07/18 09:13:45;;;;;;;;;;;;;;;;;;4986204;28;19932;-81
2021/07/18 09:16:13;;;;;;;;;;;;;;;;;;5008027;28;19940;-82
2021/07/18 09:18:42;;;;;;;;;;;;;;;;;;4997317;28;19929;-80
2021/07/18 09:21:11;;;;;;;;;;;;;;;;;;5011874;28;19934;-81
2021/07/18 09:23:39;;;;;;;;;;;;;;;;;;4993735;28;20319;-81
2021/07/18 09:26:18;;;;;;;;;;;;;;;;;;4991872;28;19925;-81
2021/07/18 09:28:46;;;;;;;;;;;;;;;;;;4984088;28;19925;-81
2021/07/18 09:31:33;;;;;;;;;;;;;;;;;;4971996;28;20101;-82
2021/07/18 09:34:11;;;;;;;;;;;;;;;;;;4992001;28;20338;-81
2021/07/18 09:36:41;;;;;;;;;;;;;;;;;;5011291;28;19926;-84
2021/07/18 09:43:35;;;;;;;;;;;;;;;;;;4965568;28;19930;-82
2021/07/18 09:46:06;;;;;;;;;;;;;;;;;;4993337;28;19933;-83
2021/07/18 09:48:48;;;;;;;;;;;;;;;;;;4967899;28;19930;-83
2021/07/18 09:51:58;;;;;;;;;;;;;;;;;;4987657;28;19934;-83
2021/07/18 09:54:30;;;;;;;;;;;;;;;;;;5010002;28;19930;-83
2021/07/18 09:57:03;;;;;;;;;;;;;;;;;;5005279;28;20309;-82
2021/07/18 09:59:38;;;;;;;;;;;;;;;;;;4977168;28;19933;-84
2021/07/18 10:02:06;;;;;;;;;;;;;;;;;;4976238;28;19925;-84
2021/07/18 10:04:40;;;;;;;;;;;;;;;;;;4992533;28;19925;-83
2021/07/18 10:07:11;;;;;;;;;;;;;;;;;;4991646;28;19945;-83
2021/07/18 10:09:47;;;;;;;;;;;;;;;;;;4988790;28;19926;-83
2021/07/18 10:12:19;;;;;;;;;;;;;;;;;;4977217;28;19926;-83
2021/07/18 10:14:50;;;;;;;;;;;;;;;;;;5008781;28;19925;-83
2021/07/18 10:17:19;;;;;;;;;;;;;;;;;;4991975;28;19925;-82
2021/07/18 10:19:47;;;;;;;;;;;;;;;;;;4974980;28;19930;-82
2021/07/18 10:22:17;;;;;;;;;;;;;;;;;;4990616;28;19925;-82
2021/07/18 10:24:49;;;;;;;;;;;;;;;;;;5008207;28;19934;-82
2021/07/18 10:27:20;;;;;;;;;;;;;;;;;;5007882;28;20402;-82
2021/07/18 10:29:52;;;;;;;;;;;;;;;;;;4981200;28;19925;-82
2021/07/18 10:32:21;;;;;;;;;;;;;;;;;;4982185;28;19929;-81
2021/07/18 10:34:52;;;;;;;;;;;;;;;;;;4990703;28;20323;-81
2021/07/18 10:37:22;;;;;;;;;;;;;;;;;;5010148;28;19959;-81
2021/07/18 10:39:50;;;;;;;;;;;;;;;;;;5015887;28;20311;-80
2021/07/18 10:42:25;;;;;;;;;;;;;;;;;;4986056;28;20319;-83
2021/07/18 10:44:53;;;;;;;;;;;;;;;;;;5000624;28;20395;-82
2021/07/18 10:47:22;;;;;;;;;;;;;;;;;;4999462;28;19948;-83
2021/07/18 10:49:51;;;;;;;;;;;;;;;;;;5005438;28;19933;-83
2021/07/18 10:52:20;;;;;;;;;;;;;;;;;;5033996;28;19957;-83
2021/07/18 10:54:50;;;;;;;;;;;;;;;;;;4999189;28;19939;-83
2021/07/18 10:57:22;;;;;;;;;;;;;;;;;;4992241;28;19925;-83
2021/07/18 10:59:50;;;;;;;;;;;;;;;;;;4997202;28;19925;-82
2021/07/18 11:02:20;;;;;;;;;;;;;;;;;;5012995;28;19933;-82
2021/07/18 11:04:49;;;;;;;;;;;;;;;;;;4978946;28;19925;-83
2021/07/18 11:07:32;;;;;;;;;;;;;;;;;;4977911;28;19925;-83
2021/07/18 11:10:13;;;;;;;;;;;;;;;;;;4992470;28;19949;-83
2021/07/18 11:12:44;;;;;;;;;;;;;;;;;;4995372;28;19960;-83
2021/07/18 11:15:23;;;;;;;;;;;;;;;;;;4994695;28;20143;-82
2021/07/18 11:17:59;;;;;;;;;;;;;;;;;;4975423;28;19933;-83
2021/07/18 11:20:59;;;;;;;;;;;;;;;;;;4974817;28;19940;-83
2021/07/18 11:23:28;;;;;;;;;;;;;;;;;;5014268;28;19930;-83
2021/07/18 11:26:02;;;;;;;;;;;;;;;;;;5008268;28;19925;-82
2021/07/18 11:28:36;;;;;;;;;;;;;;;;;;4989081;28;19926;-82
2021/07/18 11:31:23;;;;;;;;;;;;;;;;;;4999551;28;19933;-83
2021/07/18 11:33:52;;;;;;;;;;;;;;;;;;5008213;28;20164;-83
2021/07/18 11:36:21;;;;;;;;;;;;;;;;;;5001976;28;19930;-82
2021/07/18 11:38:49;;;;;;;;;;;;;;;;;;4977842;28;19940;-82
2021/07/18 11:41:26;;;;;;;;;;;;;;;;;;4993769;28;19925;-83
2021/07/18 11:44:07;;;;;;;;;;;;;;;;;;4978434;28;19934;-83
2021/07/18 11:46:39;;;;;;;;;;;;;;;;;;4991414;28;19932;-82
2021/07/18 11:49:08;;;;;;;;;;;;;;;;;;4990346;28;19932;-82
2021/07/18 11:56:27;;;;;;;;;;;;;;;;;;4949957;28;20207;-82
2021/07/18 11:58:58;;;;;;;;;;;;;;;;;;4945122;28;20416;-82
2021/07/18 12:01:27;;;;;;;;;;;;;;;;;;4968077;28;19951;-83
2021/07/18 12:03:56;;;;;;;;;;;;;;;;;;5017253;28;19951;-82
2021/07/18 12:06:27;;;;;;;;;;;;;;;;;;5002897;28;19933;-82
2021/07/18 12:08:57;;;;;;;;;;;;;;;;;;5019652;28;20418;-82
2021/07/18 12:11:27;;;;;;;;;;;;;;;;;;4994541;28;19933;-81
2021/07/18 12:13:59;;;;;;;;;;;;;;;;;;4977752;28;20302;-82
2021/07/18 12:16:28;;;;;;;;;;;;;;;;;;5004887;28;20291;-82
2021/07/18 12:18:56;;;;;;;;;;;;;;;;;;4998792;28;19933;-82
2021/07/18 12:21:26;;;;;;;;;;;;;;;;;;4998714;28;19937;-82
2021/07/18 12:24:09;;;;;;;;;;;;;;;;;;4971364;28;19934;-82
2021/07/18 12:26:38;;;;;;;;;;;;;;;;;;4975742;28;19925;-82
2021/07/18 12:29:07;;;;;;;;;;;;;;;;;;4998442;28;20395;-82
2021/07/18 12:31:35;;;;;;;;;;;;;;;;;;4998425;28;19930;-82
2021/07/18 12:34:04;;;;;;;;;;;;;;;;;;4968720;28;19926;-82
2021/07/18 12:36:32;;;;;;;;;;;;;;;;;;4998201;28;19925;-82
2021/07/18 12:39:14;;;;;;;;;;;;;;;;;;4986568;28;19937;-82
2021/07/18 12:41:43;;;;;;;;;;;;;;;;;;4983501;28;19925;-82
2021/07/18 12:44:12;;;;;;;;;;;;;;;;;;4988025;28;20410;-82
2021/07/18 12:46:42;;;;;;;;;;;;;;;;;;4997262;28;19941;-81
2021/07/18 12:49:10;;;;;;;;;;;;;;;;;;4984704;28;19929;-82
2021/07/18 12:51:39;;;;;;;;;;;;;;;;;;4996938;28;19930;-82
2021/07/18 12:54:08;;;;;;;;;;;;;;;;;;5001566;28;19929;-82
2021/07/18 12:56:36;;;;;;;;;;;;;;;;;;4992681;28;20068;-82
2021/07/18 12:59:06;;;;;;;;;;;;;;;;;;4991035;28;19933;-82
2021/07/18 13:01:36;;;;;;;;;;;;;;;;;;4998654;28;19933;-82
2021/07/18 13:04:06;;;;;;;;;;;;;;;;;;4979231;28;20284;-82
2021/07/18 13:06:41;;;;;;;;;;;;;;;;;;4992100;28;20341;-82
2021/07/18 13:09:19;;;;;;;;;;;;;;;;;;4997967;28;19934;-82
2021/07/18 13:11:50;;;;;;;;;;;;;;;;;;4972010;28;19926;-82
2021/07/18 13:14:21;;;;;;;;;;;;;;;;;;4975230;28;19933;-82
2021/07/18 13:16:50;;;;;;;;;;;;;;;;;;5008568;28;19926;-82
2021/07/18 13:19:18;;;;;;;;;;;;;;;;;;4982579;28;19925;-82
2021/07/18 13:21:58;;;;;;;;;;;;;;;;;;5014018;28;19929;-82
2021/07/18 13:24:30;;;;;;;;;;;;;;;;;;4992425;28;19940;-82
2021/07/18 13:27:08;;;;;;;;;;;;;;;;;;4999551;28;19930;-82
2021/07/18 13:29:42;;;;;;;;;;;;;;;;;;4978199;28;19933;-82
2021/07/18 13:37:56;;;;;;;;;;;;;;;;;;4982927;28;19930;-80
2021/07/18 13:40:27;;;;;;;;;;;;;;;;;;4963576;28;20398;-81
2021/07/18 13:43:06;;;;;;;;;;;;;;;;;;4977982;28;19939;-81
2021/07/18 13:45:36;;;;;;;;;;;;;;;;;;4989244;28;20330;-81
2021/07/18 13:48:05;;;;;;;;;;;;;;;;;;4982902;28;19963;-81
2021/07/18 13:50:33;;;;;;;;;;;;;;;;;;4980534;28;19926;-82
2021/07/18 13:53:02;;;;;;;;;;;;;;;;;;4988921;28;20391;-81
2021/07/18 13:55:30;;;;;;;;;;;;;;;;;;4962422;28;19929;-80
2021/07/18 13:57:59;;;;;;;;;;;;;;;;;;5012833;28;19914;-80
2021/07/18 14:00:27;;;;;;;;;;;;;;;;;;4992751;28;19913;-80
2021/07/18 14:02:59;;;;;;;;;;;;;;;;;;5001799;28;19926;-80
2021/07/18 14:05:28;;;;;;;;;;;;;;;;;;4974083;28;19937;-80
2021/07/18 14:07:56;;;;;;;;;;;;;;;;;;4996943;28;19926;-80
2021/07/18 14:10:24;;;;;;;;;;;;;;;;;;4965798;28;20180;-80
2021/07/18 14:12:52;;;;;;;;;;;;;;;;;;4968167;28;20393;-80
2021/07/18 14:15:21;;;;;;;;;;;;;;;;;;4975816;28;19930;-80
2021/07/18 14:17:50;;;;;;;;;;;;;;;;;;4976734;28;19942;-80
2021/07/18 14:20:20;;;;;;;;;;;;;;;;;;4972494;28;19930;-80
2021/07/18 14:22:49;;;;;;;;;;;;;;;;;;4969547;28;20462;-80
2021/07/18 14:25:17;;;;;;;;;;;;;;;;;;4978301;28;19949;-80
2021/07/18 14:27:46;;;;;;;;;;;;;;;;;;4959688;28;19929;-80
2021/07/18 14:30:15;;;;;;;;;;;;;;;;;;4994913;28;19926;-80
2021/07/18 14:32:43;;;;;;;;;;;;;;;;;;4971747;28;19930;-80
2021/07/18 14:35:13;;;;;;;;;;;;;;;;;;4977196;28;19926;-80
2021/07/18 14:37:44;;;;;;;;;;;;;;;;;;4983426;28;19926;-80
2021/07/18 14:40:13;;;;;;;;;;;;;;;;;;4994474;28;19930;-80
2021/07/18 14:42:41;;;;;;;;;;;;;;;;;;5001427;28;19929;-80
2021/07/18 14:45:11;;;;;;;;;;;;;;;;;;4965123;28;20390;-80
2021/07/18 14:47:40;;;;;;;;;;;;;;;;;;5000915;28;19945;-80
2021/07/18 14:50:08;;;;;;;;;;;;;;;;;;4966749;28;19934;-80
2021/07/18 14:52:36;;;;;;;;;;;;;;;;;;4981093;28;19933;-80
2021/07/18 14:55:07;;;;;;;;;;;;;;;;;;4966008;28;19926;-80
2021/07/18 14:57:36;;;;;;;;;;;;;;;;;;4964223;28;20414;-80
2021/07/18 15:00:04;;;;;;;;;;;;;;;;;;4964054;28;19925;-79
2021/07/18 15:02:33;;;;;;;;;;;;;;;;;;5000856;28;20318;-80
2021/07/18 15:05:01;;;;;;;;;;;;;;;;;;4969871;28;20394;-80
2021/07/18 15:07:29;;;;;;;;;;;;;;;;;;4964830;28;20003;-80
2021/07/18 15:09:58;;;;;;;;;;;;;;;;;;4980728;28;19933;-80
2021/07/18 15:12:27;;;;;;;;;;;;;;;;;;4978923;28;23317;-80
2021/07/18 15:14:56;;;;;;;;;;;;;;;;;;4952076;28;19949;-80
2021/07/18 15:17:25;;;;;;;;;;;;;;;;;;4994247;28;20499;-80
2021/07/18 15:19:53;;;;;;;;;;;;;;;;;;4971920;28;19934;-80
2021/07/18 15:22:21;;;;;;;;;;;;;;;;;;4974995;28;19946;-79
2021/07/18 15:24:50;;;;;;;;;;;;;;;;;;4988871;28;19926;-81
2021/07/18 15:27:18;;;;;;;;;;;;;;;;;;4983393;28;19929;-80
2021/07/18 15:29:48;;;;;;;;;;;;;;;;;;4984082;28;19949;-80
2021/07/18 15:32:16;;;;;;;;;;;;;;;;;;4961979;28;19929;-80
2021/07/18 15:34:44;;;;;;;;;;;;;;;;;;4993170;28;19949;-80
2021/07/18 15:37:12;;;;;;;;;;;;;;;;;;4965764;28;19933;-80
2021/07/18 15:39:41;;;;;;;;;;;;;;;;;;4955045;28;19929;-80
2021/07/18 15:42:09;;;;;;;;;;;;;;;;;;4982170;28;19933;-80
2021/07/18 15:44:37;;;;;;;;;;;;;;;;;;4973124;28;19926;-80
2021/07/18 15:47:07;;;;;;;;;;;;;;;;;;4990135;28;19926;-80
2021/07/18 15:49:35;;;;;;;;;;;;;;;;;;4975741;28;19927;-80
2021/07/18 15:52:04;;;;;;;;;;;;;;;;;;4962644;28;19925;-80
2021/07/18 15:54:32;;;;;;;;;;;;;;;;;;4974822;28;19925;-80
2021/07/18 15:57:01;;;;;;;;;;;;;;;;;;4952753;28;19938;-80
2021/07/18 15:59:29;;;;;;;;;;;;;;;;;;4972343;28;19934;-80
2021/07/18 16:01:58;;;;;;;;;;;;;;;;;;4967871;28;19930;-80
2021/07/18 16:04:28;;;;;;;;;;;;;;;;;;4974961;28;19933;-80
2021/07/18 16:06:57;;;;;;;;;;;;;;;;;;4967718;28;19929;-81
2021/07/18 16:09:26;;;;;;;;;;;;;;;;;;4966803;28;19926;-81
2021/07/18 16:11:54;;;;;;;;;;;;;;;;;;4969388;28;19925;-81
2021/07/18 16:14:22;;;;;;;;;;;;;;;;;;4997589;28;19940;-80
2021/07/18 16:16:51;;;;;;;;;;;;;;;;;;4990474;28;20334;-81
2021/07/18 16:19:19;;;;;;;;;;;;;;;;;;4973443;28;19925;-81
2021/07/18 16:21:49;;;;;;;;;;;;;;;;;;4980360;28;19913;-80
2021/07/18 16:24:17;;;;;;;;;;;;;;;;;;4965332;28;19925;-80
2021/07/18 16:26:45;;;;;;;;;;;;;;;;;;4984997;28;19949;-81
2021/07/18 16:29:14;;;;;;;;;;;;;;;;;;4965915;28;19926;-81
2021/07/18 16:31:42;;;;;;;;;;;;;;;;;;4975398;28;19934;-81
2021/07/18 16:34:12;;;;;;;;;;;;;;;;;;4949736;28;19925;-81
2021/07/18 16:36:41;;;;;;;;;;;;;;;;;;4969074;28;19930;-81
2021/07/18 16:39:10;;;;;;;;;;;;;;;;;;4954182;28;19925;-81
2021/07/18 16:41:39;;;;;;;;;;;;;;;;;;4967665;28;19934;-80
2021/07/18 16:44:07;;;;;;;;;;;;;;;;;;4955651;28;19930;-81
2021/07/18 16:46:35;;;;;;;;;;;;;;;;;;4963180;28;19926;-80
2021/07/18 16:49:04;;;;;;;;;;;;;;;;;;4965190;28;19926;-81
2021/07/18 16:51:33;;;;;;;;;;;;;;;;;;4971109;28;19941;-80
2021/07/18 16:54:01;;;;;;;;;;;;;;;;;;4990385;28;19933;-81
2021/07/18 16:56:31;;;;;;;;;;;;;;;;;;4978469;28;19929;-80
2021/07/18 16:59:00;;;;;;;;;;;;;;;;;;4981686;28;19926;-80
2021/07/18 17:01:28;;;;;;;;;;;;;;;;;;4960953;28;19925;-80
2021/07/18 17:03:57;;;;;;;;;;;;;;;;;;4977404;28;20462;-80
2021/07/18 17:06:25;;;;;;;;;;;;;;;;;;4957897;28;20012;-80
2021/07/18 17:08:54;;;;;;;;;;;;;;;;;;4979984;28;19930;-80
2021/07/18 17:11:22;;;;;;;;;;;;;;;;;;4979633;28;19930;-80
2021/07/18 17:13:53;;;;;;;;;;;;;;;;;;4985076;28;19948;-80
2021/07/18 17:16:21;;;;;;;;;;;;;;;;;;4959526;28;19933;-80
2021/07/18 17:18:49;;;;;;;;;;;;;;;;;;4978480;28;20397;-80
2021/07/18 17:21:19;;;;;;;;;;;;;;;;;;4982480;28;19925;-80
2021/07/18 17:23:47;;;;;;;;;;;;;;;;;;4947545;28;19933;-80
2021/07/18 17:26:16;;;;;;;;;;;;;;;;;;4967515;28;19941;-80
2021/07/18 17:28:44;;;;;;;;;;;;;;;;;;4966033;28;20299;-80
2021/07/18 17:31:14;;;;;;;;;;;;;;;;;;4954754;28;19929;-80
2021/07/18 17:33:42;;;;;;;;;;;;;;;;;;4967944;28;20291;-80
2021/07/18 17:36:12;;;;;;;;;;;;;;;;;;4943488;28;21336;-79
2021/07/18 17:38:41;;;;;;;;;;;;;;;;;;4972103;28;20403;-80
2021/07/18 17:41:09;;;;;;;;;;;;;;;;;;4964759;28;19926;-79
2021/07/18 17:43:38;;;;;;;;;;;;;;;;;;4966148;28;19930;-79
2021/07/18 17:46:07;;;;;;;;;;;;;;;;;;4958977;28;20326;-80
2021/07/18 17:48:40;;;;;;;;;;;;;;;;;;4974192;28;20307;-80
2021/07/18 17:51:09;;;;;;;;;;;;;;;;;;4973986;28;20295;-80
2021/07/18 17:53:37;;;;;;;;;;;;;;;;;;4957780;28;20289;-81
2021/07/18 17:56:06;;;;;;;;;;;;;;;;;;4964098;28;19933;-81
2021/07/18 17:58:35;;;;;;;;;;;;;;;;;;4982050;28;20199;-81
2021/07/18 18:01:03;;;;;;;;;;;;;;;;;;4963781;28;19926;-82
2021/07/18 18:03:32;;;;;;;;;;;;;;;;;;4957390;28;19933;-82
2021/07/18 18:06:01;;;;;;;;;;;;;;;;;;4980494;28;19933;-81
2021/07/18 18:08:30;;;;;;;;;;;;;;;;;;4960382;28;19930;-80
2021/07/18 18:11:02;;;;;;;;;;;;;;;;;;4985852;28;19948;-81
2021/07/18 18:13:32;;;;;;;;;;;;;;;;;;4995995;28;19934;-81
2021/07/18 18:16:02;;;;;;;;;;;;;;;;;;4992505;28;19933;-80
2021/07/18 18:18:30;;;;;;;;;;;;;;;;;;4954892;28;19926;-81
2021/07/18 18:20:59;;;;;;;;;;;;;;;;;;4962779;28;19926;-81
2021/07/18 18:23:29;;;;;;;;;;;;;;;;;;4962266;28;19930;-81
2021/07/18 18:25:57;;;;;;;;;;;;;;;;;;4982556;28;19926;-80
2021/07/18 18:28:25;;;;;;;;;;;;;;;;;;4966916;28;20320;-84
2021/07/18 18:30:55;;;;;;;;;;;;;;;;;;4978444;28;19934;-82
2021/07/18 18:33:27;;;;;;;;;;;;;;;;;;4966095;28;19937;-83
2021/07/18 18:35:56;;;;;;;;;;;;;;;;;;4958270;28;20407;-82
2021/07/18 18:38:24;;;;;;;;;;;;;;;;;;4980039;28;19926;-82
2021/07/18 18:40:54;;;;;;;;;;;;;;;;;;4954844;28;19933;-81
2021/07/18 18:43:23;;;;;;;;;;;;;;;;;;4967719;28;20508;-80
2021/07/18 18:45:53;;;;;;;;;;;;;;;;;;4960370;28;19933;-81